sensor_id;sensor_type;location;lat;lon;timestamp;pressure;altitude;pressure_sealevel;temperature;humidity
10988;BME280;5547;42.672;23.230;2023-08-17T00:02:45;93402.47;;;18.97;100.00
10988;BME280;5547;42.672;23.230;2023-08-17T00:05:45;93390.53;;;18.80;100.00
10988;BME280;5547;42.672;23.230;2023-08-17T00:08:46;93336.66;;;18.28;100.00
10988;BME280;5547;42.672;23.230;2023-08-17T00:11:46;93432.88;;;18.88;100.00
10988;BME280;5547;42.672;23.230;2023-08-17T00:14:47;93406.41;;;18.78;100.00
10988;BME280;5547;42.672;23.230;2023-08-17T00:17:47;93437.53;;;18.88;100.00
10988;BME280;5547;42.672;23.230;2023-08-17T00:20:47;93257.66;;;17.70;100.00
10988;BME280;5547;42.672;23.230;2023-08-17T00:23:48;93425.13;;;18.81;100.00
10988;BME280;5547;42.672;23.230;2023-08-17T00:26:49;93428.66;;;18.87;100.00
10988;BME280;5547;42.672;23.230;2023-08-17T00:29:49;93404.06;;;18.52;100.00
10988;BME280;5547;42.672;23.230;2023-08-17T00:32:50;93305.50;;;17.84;100.00
10988;BME280;5547;42.672;23.230;2023-08-17T00:35:50;93333.13;;;17.85;100.00
10988;BME280;5547;42.672;23.230;2023-08-17T00:38:50;93396.63;;;18.38;100.00
10988;BME280;5547;42.672;23.230;2023-08-17T00:41:51;93429.03;;;18.62;100.00
10988;BME280;5547;42.672;23.230;2023-08-17T00:44:52;93429.34;;;18.55;100.00
10988;BME280;5547;42.672;23.230;2023-08-17T00:47:56;93432.78;;;18.46;100.00
10988;BME280;5547;42.672;23.230;2023-08-17T00:50:57;93415.19;;;18.26;100.00
10988;BME280;5547;42.672;23.230;2023-08-17T00:53:59;93429.38;;;18.18;100.00
10988;BME280;5547;42.672;23.230;2023-08-17T00:57:01;93422.53;;;18.17;100.00
10988;BME280;5547;42.672;23.230;2023-08-17T01:00:07;93345.38;;;17.49;100.00
10988;BME280;5547;42.672;23.230;2023-08-17T01:03:08;93415.63;;;17.88;100.00
10988;BME280;5547;42.672;23.230;2023-08-17T01:06:09;93407.81;;;17.72;100.00
10988;BME280;5547;42.672;23.230;2023-08-17T01:09:10;93412.91;;;17.70;100.00
10988;BME280;5547;42.672;23.230;2023-08-17T01:12:29;93368.50;;;17.37;100.00
10988;BME280;5547;42.672;23.230;2023-08-17T01:15:35;93190.84;;;15.90;100.00
10988;BME280;5547;42.672;23.230;2023-08-17T01:18:37;93416.44;;;17.39;100.00
10988;BME280;5547;42.672;23.230;2023-08-17T01:21:49;93407.81;;;17.53;100.00
10988;BME280;5547;42.672;23.230;2023-08-17T01:24:50;93336.97;;;17.10;100.00
10988;BME280;5547;42.672;23.230;2023-08-17T01:27:57;93373.31;;;17.42;100.00
10988;BME280;5547;42.672;23.230;2023-08-17T01:31:05;93346.09;;;17.22;100.00
10988;BME280;5547;42.672;23.230;2023-08-17T01:34:11;93257.84;;;16.43;100.00
10988;BME280;5547;42.672;23.230;2023-08-17T01:37:20;93374.94;;;17.40;100.00
10988;BME280;5547;42.672;23.230;2023-08-17T01:40:22;93300.72;;;16.74;100.00
10988;BME280;5547;42.672;23.230;2023-08-17T01:43:23;93416.16;;;17.46;100.00
10988;BME280;5547;42.672;23.230;2023-08-17T01:46:30;93353.44;;;17.31;100.00
10988;BME280;5547;42.672;23.230;2023-08-17T01:49:32;93410.41;;;17.84;100.00
10988;BME280;5547;42.672;23.230;2023-08-17T01:52:33;93396.31;;;17.62;100.00
10988;BME280;5547;42.672;23.230;2023-08-17T01:55:33;93413.97;;;17.54;100.00
10988;BME280;5547;42.672;23.230;2023-08-17T01:58:35;93401.63;;;17.25;100.00
10988;BME280;5547;42.672;23.230;2023-08-17T02:01:35;93412.97;;;17.20;100.00
10988;BME280;5547;42.672;23.230;2023-08-17T02:04:36;93411.13;;;16.98;100.00
10988;BME280;5547;42.672;23.230;2023-08-17T02:07:36;93406.72;;;16.83;100.00
10988;BME280;5547;42.672;23.230;2023-08-17T02:10:37;93406.72;;;16.83;100.00
10988;BME280;5547;42.672;23.230;2023-08-17T02:13:37;93382.38;;;16.46;100.00
10988;BME280;5547;42.672;23.230;2023-08-17T02:16:38;93400.78;;;16.66;100.00
10988;BME280;5547;42.672;23.230;2023-08-17T02:19:38;93298.19;;;15.99;100.00
10988;BME280;5547;42.672;23.230;2023-08-17T02:22:38;93388.34;;;16.50;100.00
10988;BME280;5547;42.672;23.230;2023-08-17T02:25:39;93368.34;;;16.20;100.00
10988;BME280;5547;42.672;23.230;2023-08-17T02:28:39;93338.16;;;15.84;100.00
10988;BME280;5547;42.672;23.230;2023-08-17T02:31:40;93399.00;;;16.09;100.00
10988;BME280;5547;42.672;23.230;2023-08-17T02:34:40;93351.53;;;15.62;100.00
10988;BME280;5547;42.672;23.230;2023-08-17T02:37:40;93367.03;;;15.80;100.00
10988;BME280;5547;42.672;23.230;2023-08-17T02:40:41;93269.81;;;15.10;100.00
10988;BME280;5547;42.672;23.230;2023-08-17T02:43:41;93303.59;;;15.42;100.00
10988;BME280;5547;42.672;23.230;2023-08-17T02:46:42;93146.88;;;14.20;100.00
10988;BME280;5547;42.672;23.230;2023-08-17T02:49:42;93315.56;;;15.16;100.00
10988;BME280;5547;42.672;23.230;2023-08-17T02:52:43;93389.44;;;15.51;100.00
10988;BME280;5547;42.672;23.230;2023-08-17T02:55:43;93395.69;;;15.36;100.00
10988;BME280;5547;42.672;23.230;2023-08-17T02:58:43;93366.34;;;15.06;100.00
10988;BME280;5547;42.672;23.230;2023-08-17T03:01:45;93387.38;;;15.21;100.00
10988;BME280;5547;42.672;23.230;2023-08-17T03:04:46;93398.31;;;15.13;100.00
10988;BME280;5547;42.672;23.230;2023-08-17T03:07:46;93393.59;;;15.05;100.00
10988;BME280;5547;42.672;23.230;2023-08-17T03:10:47;93385.34;;;14.86;100.00
10988;BME280;5547;42.672;23.230;2023-08-17T03:13:47;93393.81;;;14.85;100.00
10988;BME280;5547;42.672;23.230;2023-08-17T03:16:48;93382.25;;;14.62;100.00
10988;BME280;5547;42.672;23.230;2023-08-17T03:19:49;93393.38;;;14.99;100.00
10988;BME280;5547;42.672;23.230;2023-08-17T03:22:49;93379.56;;;15.01;100.00
10988;BME280;5547;42.672;23.230;2023-08-17T03:25:53;93390.34;;;15.23;100.00
10988;BME280;5547;42.672;23.230;2023-08-17T03:28:53;93401.94;;;15.54;100.00
10988;BME280;5547;42.672;23.230;2023-08-17T03:31:54;93376.22;;;15.09;100.00
10988;BME280;5547;42.672;23.230;2023-08-17T03:34:54;93135.78;;;13.32;100.00
10988;BME280;5547;42.672;23.230;2023-08-17T03:37:55;93385.50;;;15.30;100.00
10988;BME280;5547;42.672;23.230;2023-08-17T03:40:55;93358.88;;;15.01;100.00
10988;BME280;5547;42.672;23.230;2023-08-17T03:43:55;93407.78;;;15.40;100.00
10988;BME280;5547;42.672;23.230;2023-08-17T03:46:56;93400.63;;;15.24;100.00
10988;BME280;5547;42.672;23.230;2023-08-17T03:49:56;93392.22;;;15.00;100.00
10988;BME280;5547;42.672;23.230;2023-08-17T03:52:57;93367.78;;;14.85;100.00
10988;BME280;5547;42.672;23.230;2023-08-17T03:55:57;93412.00;;;15.16;100.00
10988;BME280;5547;42.672;23.230;2023-08-17T03:58:58;93317.13;;;14.53;100.00
10988;BME280;5547;42.672;23.230;2023-08-17T04:01:58;93288.88;;;14.39;100.00
10988;BME280;5547;42.672;23.230;2023-08-17T04:04:59;93418.41;;;15.31;100.00
10988;BME280;5547;42.672;23.230;2023-08-17T04:08:03;93426.97;;;15.39;100.00
10988;BME280;5547;42.672;23.230;2023-08-17T04:11:04;93433.41;;;15.89;100.00
10988;BME280;5547;42.672;23.230;2023-08-17T04:14:05;93428.94;;;16.08;100.00
10988;BME280;5547;42.672;23.230;2023-08-17T04:17:05;93432.56;;;16.14;100.00
10988;BME280;5547;42.672;23.230;2023-08-17T04:20:06;93324.09;;;15.58;100.00
10988;BME280;5547;42.672;23.230;2023-08-17T04:23:07;93379.78;;;16.11;100.00
10988;BME280;5547;42.672;23.230;2023-08-17T04:26:07;93423.91;;;16.63;100.00
10988;BME280;5547;42.672;23.230;2023-08-17T04:29:08;93368.63;;;16.44;100.00
10988;BME280;5547;42.672;23.230;2023-08-17T04:32:13;93405.75;;;16.98;100.00
10988;BME280;5547;42.672;23.230;2023-08-17T04:35:14;93419.41;;;17.22;100.00
10988;BME280;5547;42.672;23.230;2023-08-17T04:38:15;93350.03;;;16.90;100.00
10988;BME280;5547;42.672;23.230;2023-08-17T04:41:16;93347.72;;;17.19;100.00
10988;BME280;5547;42.672;23.230;2023-08-17T04:44:17;93325.22;;;17.35;100.00
10988;BME280;5547;42.672;23.230;2023-08-17T04:47:17;93404.56;;;18.04;100.00
10988;BME280;5547;42.672;23.230;2023-08-17T04:50:17;93337.59;;;17.70;100.00
10988;BME280;5547;42.672;23.230;2023-08-17T04:53:18;93296.38;;;17.63;100.00
10988;BME280;5547;42.672;23.230;2023-08-17T04:56:18;93405.28;;;18.42;100.00
10988;BME280;5547;42.672;23.230;2023-08-17T04:59:19;93448.84;;;19.01;100.00
10988;BME280;5547;42.672;23.230;2023-08-17T05:02:19;93439.38;;;19.06;100.00
10988;BME280;5547;42.672;23.230;2023-08-17T05:05:20;93399.97;;;18.66;100.00
10988;BME280;5547;42.672;23.230;2023-08-17T05:08:20;93394.19;;;18.49;100.00
10988;BME280;5547;42.672;23.230;2023-08-17T05:11:22;93380.31;;;18.32;100.00
10988;BME280;5547;42.672;23.230;2023-08-17T05:14:22;93412.53;;;18.69;100.00
10988;BME280;5547;42.672;23.230;2023-08-17T05:17:23;93378.72;;;18.68;100.00
10988;BME280;5547;42.672;23.230;2023-08-17T05:20:23;93337.47;;;18.53;100.00
10988;BME280;5547;42.672;23.230;2023-08-17T05:23:24;93444.06;;;19.63;100.00
10988;BME280;5547;42.672;23.230;2023-08-17T05:26:24;93416.97;;;19.57;100.00
10988;BME280;5547;42.672;23.230;2023-08-17T05:29:26;93408.41;;;19.59;100.00
10988;BME280;5547;42.672;23.230;2023-08-17T05:32:26;93440.22;;;20.03;100.00
10988;BME280;5547;42.672;23.230;2023-08-17T05:35:26;93419.56;;;20.14;100.00
10988;BME280;5547;42.672;23.230;2023-08-17T05:38:27;93381.22;;;19.71;100.00
10988;BME280;5547;42.672;23.230;2023-08-17T05:41:27;93435.41;;;20.22;100.00
10988;BME280;5547;42.672;23.230;2023-08-17T05:44:28;93395.53;;;20.02;100.00
10988;BME280;5547;42.672;23.230;2023-08-17T05:47:28;93462.34;;;20.31;100.00
10988;BME280;5547;42.672;23.230;2023-08-17T05:50:28;93450.19;;;20.50;100.00
10988;BME280;5547;42.672;23.230;2023-08-17T05:53:29;93431.84;;;20.84;100.00
10988;BME280;5547;42.672;23.230;2023-08-17T05:56:31;93424.75;;;20.72;100.00
10988;BME280;5547;42.672;23.230;2023-08-17T05:59:31;93435.66;;;20.92;100.00
10988;BME280;5547;42.672;23.230;2023-08-17T06:02:32;93432.28;;;20.97;100.00
10988;BME280;5547;42.672;23.230;2023-08-17T06:05:32;93460.06;;;21.13;100.00
10988;BME280;5547;42.672;23.230;2023-08-17T06:08:33;93457.44;;;21.18;100.00
10988;BME280;5547;42.672;23.230;2023-08-17T06:11:33;93478.97;;;21.43;100.00
10988;BME280;5547;42.672;23.230;2023-08-17T06:14:34;93469.72;;;21.34;100.00
10988;BME280;5547;42.672;23.230;2023-08-17T06:17:34;93467.03;;;21.49;100.00
10988;BME280;5547;42.672;23.230;2023-08-17T06:20:35;93471.72;;;21.69;100.00
10988;BME280;5547;42.672;23.230;2023-08-17T06:23:35;93461.53;;;21.79;100.00
10988;BME280;5547;42.672;23.230;2023-08-17T06:26:35;93464.75;;;22.03;100.00
10988;BME280;5547;42.672;23.230;2023-08-17T06:29:36;93477.34;;;22.07;100.00
10988;BME280;5547;42.672;23.230;2023-08-17T06:32:36;93398.44;;;21.73;100.00
10988;BME280;5547;42.672;23.230;2023-08-17T06:35:36;93448.84;;;22.11;100.00
10988;BME280;5547;42.672;23.230;2023-08-17T06:38:37;93456.03;;;22.14;100.00
10988;BME280;5547;42.672;23.230;2023-08-17T06:41:37;93465.09;;;22.32;100.00
10988;BME280;5547;42.672;23.230;2023-08-17T06:44:37;93485.97;;;22.46;100.00
10988;BME280;5547;42.672;23.230;2023-08-17T06:47:38;93445.72;;;22.39;100.00
10988;BME280;5547;42.672;23.230;2023-08-17T06:50:38;93480.13;;;22.79;100.00
10988;BME280;5547;42.672;23.230;2023-08-17T06:53:39;93371.78;;;22.33;100.00
10988;BME280;5547;42.672;23.230;2023-08-17T06:56:39;93469.38;;;23.17;100.00
10988;BME280;5547;42.672;23.230;2023-08-17T06:59:39;93451.66;;;23.21;100.00
10988;BME280;5547;42.672;23.230;2023-08-17T07:02:40;93473.13;;;23.25;100.00
10988;BME280;5547;42.672;23.230;2023-08-17T07:05:41;93476.84;;;23.65;100.00
10988;BME280;5547;42.672;23.230;2023-08-17T07:08:41;93468.97;;;23.67;100.00
10988;BME280;5547;42.672;23.230;2023-08-17T07:11:41;93440.41;;;23.40;100.00
10988;BME280;5547;42.672;23.230;2023-08-17T07:14:42;93472.13;;;24.03;100.00
10988;BME280;5547;42.672;23.230;2023-08-17T07:17:42;93464.44;;;23.96;94.14
10988;BME280;5547;42.672;23.230;2023-08-17T07:20:43;93460.25;;;23.95;89.94
10988;BME280;5547;42.672;23.230;2023-08-17T07:23:44;93466.94;;;23.99;90.89
10988;BME280;5547;42.672;23.230;2023-08-17T07:26:45;93423.41;;;23.45;88.52
10988;BME280;5547;42.672;23.230;2023-08-17T07:29:46;93461.97;;;23.98;86.45
10988;BME280;5547;42.672;23.230;2023-08-17T07:32:46;93462.06;;;24.20;83.02
10988;BME280;5547;42.672;23.230;2023-08-17T07:35:47;93466.47;;;24.12;84.94
10988;BME280;5547;42.672;23.230;2023-08-17T07:38:47;93447.75;;;24.25;78.45
10988;BME280;5547;42.672;23.230;2023-08-17T07:41:47;93466.34;;;24.44;75.50
10988;BME280;5547;42.672;23.230;2023-08-17T07:44:48;93464.88;;;24.43;70.88
10988;BME280;5547;42.672;23.230;2023-08-17T07:47:48;93452.25;;;24.40;68.89
10988;BME280;5547;42.672;23.230;2023-08-17T07:50:50;93475.09;;;24.70;59.94
10988;BME280;5547;42.672;23.230;2023-08-17T07:53:51;93471.38;;;24.79;58.97
10988;BME280;5547;42.672;23.230;2023-08-17T07:56:51;93413.91;;;24.21;58.52
10988;BME280;5547;42.672;23.230;2023-08-17T07:59:51;93441.94;;;24.55;59.37
10988;BME280;5547;42.672;23.230;2023-08-17T08:02:53;93453.09;;;24.68;58.41
10988;BME280;5547;42.672;23.230;2023-08-17T08:05:54;93434.06;;;24.68;60.97
10988;BME280;5547;42.672;23.230;2023-08-17T08:08:54;93457.06;;;25.12;62.36
10988;BME280;5547;42.672;23.230;2023-08-17T08:11:55;93393.53;;;24.82;59.71
10988;BME280;5547;42.672;23.230;2023-08-17T08:14:55;93460.78;;;25.32;59.46
10988;BME280;5547;42.672;23.230;2023-08-17T08:17:55;93447.44;;;25.23;60.10
10988;BME280;5547;42.672;23.230;2023-08-17T08:20:56;93460.06;;;25.31;61.90
10988;BME280;5547;42.672;23.230;2023-08-17T08:23:56;93448.94;;;25.35;57.77
10988;BME280;5547;42.672;23.230;2023-08-17T08:26:56;93453.88;;;25.42;58.41
10988;BME280;5547;42.672;23.230;2023-08-17T08:29:57;93462.50;;;25.63;57.09
10988;BME280;5547;42.672;23.230;2023-08-17T08:32:57;93460.50;;;25.64;59.35
10988;BME280;5547;42.672;23.230;2023-08-17T08:35:59;93454.84;;;25.50;60.51
10988;BME280;5547;42.672;23.230;2023-08-17T08:38:59;93459.53;;;25.50;60.61
10988;BME280;5547;42.672;23.230;2023-08-17T08:42:00;93440.50;;;25.44;60.12
10988;BME280;5547;42.672;23.230;2023-08-17T08:45:00;93438.19;;;25.82;57.67
10988;BME280;5547;42.672;23.230;2023-08-17T08:48:01;93446.38;;;25.76;58.36
10988;BME280;5547;42.672;23.230;2023-08-17T08:51:03;93430.00;;;25.82;58.20
10988;BME280;5547;42.672;23.230;2023-08-17T08:54:08;93452.28;;;25.86;58.67
10988;BME280;5547;42.672;23.230;2023-08-17T08:57:13;93423.84;;;25.65;59.10
10988;BME280;5547;42.672;23.230;2023-08-17T09:00:14;93389.00;;;25.46;58.37
10988;BME280;5547;42.672;23.230;2023-08-17T09:03:15;93431.22;;;25.92;59.91
10988;BME280;5547;42.672;23.230;2023-08-17T09:06:19;93437.25;;;26.32;58.27
10988;BME280;5547;42.672;23.230;2023-08-17T09:09:23;93427.63;;;26.20;58.57
10988;BME280;5547;42.672;23.230;2023-08-17T09:12:24;93438.78;;;26.28;57.07
10988;BME280;5547;42.672;23.230;2023-08-17T09:15:24;93428.31;;;26.37;59.91
10988;BME280;5547;42.672;23.230;2023-08-17T09:18:25;93431.59;;;26.25;59.22
10988;BME280;5547;42.672;23.230;2023-08-17T09:21:25;93419.94;;;26.24;57.46
10988;BME280;5547;42.672;23.230;2023-08-17T09:24:35;93407.75;;;26.31;56.52
10988;BME280;5547;42.672;23.230;2023-08-17T09:27:38;93415.34;;;26.49;57.02
10988;BME280;5547;42.672;23.230;2023-08-17T09:33:52;93402.63;;;26.63;59.89
10988;BME280;5547;42.672;23.230;2023-08-17T09:36:53;93400.88;;;26.71;59.01
10988;BME280;5547;42.672;23.230;2023-08-17T09:39:53;93416.41;;;26.82;55.47
10988;BME280;5547;42.672;23.230;2023-08-17T09:42:54;93402.00;;;26.81;60.36
10988;BME280;5547;42.672;23.230;2023-08-17T09:45:55;93394.84;;;26.78;58.41
10988;BME280;5547;42.672;23.230;2023-08-17T09:48:55;93411.50;;;26.75;53.59
10988;BME280;5547;42.672;23.230;2023-08-17T09:51:59;93391.50;;;26.91;53.50
10988;BME280;5547;42.672;23.230;2023-08-17T09:54:59;93400.88;;;27.01;53.58
10988;BME280;5547;42.672;23.230;2023-08-17T09:58:03;93356.19;;;26.74;56.46
10988;BME280;5547;42.672;23.230;2023-08-17T10:01:04;93384.66;;;27.09;52.77
10988;BME280;5547;42.672;23.230;2023-08-17T10:04:08;93396.00;;;27.24;49.79
10988;BME280;5547;42.672;23.230;2023-08-17T10:07:10;93389.97;;;27.01;49.62
10988;BME280;5547;42.672;23.230;2023-08-17T10:10:13;93395.53;;;27.20;52.08
10988;BME280;5547;42.672;23.230;2023-08-17T10:13:31;93331.06;;;26.81;52.54
10988;BME280;5547;42.672;23.230;2023-08-17T10:16:51;93368.66;;;27.49;49.43
10988;BME280;5547;42.672;23.230;2023-08-17T10:19:57;93331.13;;;27.31;49.66
10988;BME280;5547;42.672;23.230;2023-08-17T10:23:17;93392.16;;;27.82;49.16
10988;BME280;5547;42.672;23.230;2023-08-17T10:26:19;93385.94;;;27.82;48.72
10988;BME280;5547;42.672;23.230;2023-08-17T10:29:22;93382.44;;;27.38;46.33
10988;BME280;5547;42.672;23.230;2023-08-17T10:32:23;93371.72;;;27.64;46.28
10988;BME280;5547;42.672;23.230;2023-08-17T10:35:25;93367.81;;;27.84;45.49
10988;BME280;5547;42.672;23.230;2023-08-17T10:38:26;93378.75;;;27.84;47.33
10988;BME280;5547;42.672;23.230;2023-08-17T10:41:26;93377.72;;;27.88;46.34
10988;BME280;5547;42.672;23.230;2023-08-17T10:44:46;93369.28;;;28.04;48.88
10988;BME280;5547;42.672;23.230;2023-08-17T10:47:47;93370.97;;;27.89;45.85
10988;BME280;5547;42.672;23.230;2023-08-17T10:51:04;93375.06;;;28.20;44.50
10988;BME280;5547;42.672;23.230;2023-08-17T10:54:05;93365.09;;;28.03;46.89
10988;BME280;5547;42.672;23.230;2023-08-17T10:57:25;93310.06;;;27.50;46.78
10988;BME280;5547;42.672;23.230;2023-08-17T11:00:25;93364.19;;;27.95;44.20
10988;BME280;5547;42.672;23.230;2023-08-17T11:03:34;93371.22;;;28.10;46.05
10988;BME280;5547;42.672;23.230;2023-08-17T11:06:36;93360.63;;;28.00;46.50
10988;BME280;5547;42.672;23.230;2023-08-17T11:09:37;93363.31;;;28.25;43.58
10988;BME280;5547;42.672;23.230;2023-08-17T11:12:38;93327.47;;;28.10;44.33
10988;BME280;5547;42.672;23.230;2023-08-17T11:15:41;93352.56;;;28.65;43.92
10988;BME280;5547;42.672;23.230;2023-08-17T11:18:42;93302.47;;;28.19;43.89
10988;BME280;5547;42.672;23.230;2023-08-17T11:21:45;93283.56;;;28.21;43.25
10988;BME280;5547;42.672;23.230;2023-08-17T11:24:45;93323.00;;;28.63;43.04
10988;BME280;5547;42.672;23.230;2023-08-17T11:27:46;93309.41;;;28.39;44.08
10988;BME280;5547;42.672;23.230;2023-08-17T11:30:56;93320.00;;;28.48;43.83
10988;BME280;5547;42.672;23.230;2023-08-17T11:33:58;93319.09;;;28.72;46.20
10988;BME280;5547;42.672;23.230;2023-08-17T11:36:58;93341.13;;;28.80;44.24
10988;BME280;5547;42.672;23.230;2023-08-17T11:39:58;93341.88;;;28.80;43.27
10988;BME280;5547;42.672;23.230;2023-08-17T11:42:59;93291.38;;;28.30;43.26
10988;BME280;5547;42.672;23.230;2023-08-17T11:46:01;93339.38;;;28.96;44.05
10988;BME280;5547;42.672;23.230;2023-08-17T11:49:01;93343.19;;;29.06;43.87
10988;BME280;5547;42.672;23.230;2023-08-17T11:52:02;93280.97;;;28.47;46.48
10988;BME280;5547;42.672;23.230;2023-08-17T11:55:07;93336.56;;;28.69;44.30
10988;BME280;5547;42.672;23.230;2023-08-17T11:58:10;93273.28;;;28.27;46.21
10988;BME280;5547;42.672;23.230;2023-08-17T12:01:12;93334.53;;;28.88;46.25
10988;BME280;5547;42.672;23.230;2023-08-17T12:04:13;93219.75;;;28.32;43.88
10988;BME280;5547;42.672;23.230;2023-08-17T12:07:13;93285.81;;;28.55;44.74
10988;BME280;5547;42.672;23.230;2023-08-17T12:10:14;93279.59;;;28.35;44.97
10988;BME280;5547;42.672;23.230;2023-08-17T12:13:14;93246.19;;;28.10;46.23
10988;BME280;5547;42.672;23.230;2023-08-17T12:16:15;93316.84;;;28.89;44.08
10988;BME280;5547;42.672;23.230;2023-08-17T12:19:15;93330.06;;;29.18;45.97
10988;BME280;5547;42.672;23.230;2023-08-17T12:22:17;93305.63;;;29.46;42.70
10988;BME280;5547;42.672;23.230;2023-08-17T12:25:20;93316.47;;;29.12;44.15
10988;BME280;5547;42.672;23.230;2023-08-17T12:28:23;93262.31;;;28.91;43.35
10988;BME280;5547;42.672;23.230;2023-08-17T12:31:24;93330.47;;;29.48;43.31
10988;BME280;5547;42.672;23.230;2023-08-17T12:34:24;93322.47;;;29.50;43.66
10988;BME280;5547;42.672;23.230;2023-08-17T12:37:25;93277.97;;;29.04;43.70
10988;BME280;5547;42.672;23.230;2023-08-17T12:40:25;93259.72;;;29.26;45.06
10988;BME280;5547;42.672;23.230;2023-08-17T12:43:26;93297.28;;;29.52;44.32
10988;BME280;5547;42.672;23.230;2023-08-17T12:46:27;93295.09;;;29.77;48.42
10988;BME280;5547;42.672;23.230;2023-08-17T12:49:27;93298.06;;;29.26;49.84
10988;BME280;5547;42.672;23.230;2023-08-17T12:52:28;93315.97;;;28.81;51.77
10988;BME280;5547;42.672;23.230;2023-08-17T12:55:28;93313.63;;;28.59;51.84
10988;BME280;5547;42.672;23.230;2023-08-17T12:58:29;93312.97;;;28.98;50.50
10988;BME280;5547;42.672;23.230;2023-08-17T13:01:29;93330.38;;;29.27;51.26
10988;BME280;5547;42.672;23.230;2023-08-17T13:04:30;93325.94;;;29.11;50.91
10988;BME280;5547;42.672;23.230;2023-08-17T13:07:30;93309.88;;;28.75;53.10
10988;BME280;5547;42.672;23.230;2023-08-17T13:10:30;93309.56;;;28.46;53.77
10988;BME280;5547;42.672;23.230;2023-08-17T13:13:31;93306.06;;;28.78;54.96
10988;BME280;5547;42.672;23.230;2023-08-17T13:16:31;93325.00;;;29.22;52.33
10988;BME280;5547;42.672;23.230;2023-08-17T13:19:32;93289.72;;;29.45;49.24
10988;BME280;5547;42.672;23.230;2023-08-17T13:22:32;93330.09;;;29.71;49.54
10988;BME280;5547;42.672;23.230;2023-08-17T13:25:32;93329.84;;;29.95;49.71
10988;BME280;5547;42.672;23.230;2023-08-17T13:28:33;93324.22;;;30.01;50.08
10988;BME280;5547;42.672;23.230;2023-08-17T13:31:33;93324.56;;;29.98;50.00
10988;BME280;5547;42.672;23.230;2023-08-17T13:34:34;93335.44;;;29.90;49.94
10988;BME280;5547;42.672;23.230;2023-08-17T13:37:36;93301.72;;;29.82;48.85
10988;BME280;5547;42.672;23.230;2023-08-17T13:40:37;93337.75;;;29.59;49.51
10988;BME280;5547;42.672;23.230;2023-08-17T13:43:39;93323.75;;;29.76;51.08
10988;BME280;5547;42.672;23.230;2023-08-17T13:46:39;93297.91;;;29.71;49.00
10988;BME280;5547;42.672;23.230;2023-08-17T13:49:39;93313.13;;;29.32;49.42
10988;BME280;5547;42.672;23.230;2023-08-17T13:52:40;93299.31;;;29.11;50.28
10988;BME280;5547;42.672;23.230;2023-08-17T13:55:40;93331.44;;;29.24;49.73
10988;BME280;5547;42.672;23.230;2023-08-17T13:58:41;93333.13;;;29.27;50.19
10988;BME280;5547;42.672;23.230;2023-08-17T14:01:41;93292.66;;;29.07;50.27
10988;BME280;5547;42.672;23.230;2023-08-17T14:04:42;93238.88;;;28.51;50.81
10988;BME280;5547;42.672;23.230;2023-08-17T14:07:42;93217.53;;;28.30;51.14
10988;BME280;5547;42.672;23.230;2023-08-17T14:10:43;93324.59;;;29.44;50.92
10988;BME280;5547;42.672;23.230;2023-08-17T14:13:43;93317.22;;;29.13;48.67
10988;BME280;5547;42.672;23.230;2023-08-17T14:16:43;93313.25;;;28.95;49.51
10988;BME280;5547;42.672;23.230;2023-08-17T14:19:44;93302.34;;;28.62;50.28
10988;BME280;5547;42.672;23.230;2023-08-17T14:22:44;93222.00;;;28.46;49.44
10988;BME280;5547;42.672;23.230;2023-08-17T14:25:45;93338.78;;;30.09;47.58
10988;BME280;5547;42.672;23.230;2023-08-17T14:28:45;93341.13;;;30.40;45.63
10988;BME280;5547;42.672;23.230;2023-08-17T14:31:45;93336.34;;;30.06;45.65
10988;BME280;5547;42.672;23.230;2023-08-17T14:34:46;93333.75;;;29.87;46.08
10988;BME280;5547;42.672;23.230;2023-08-17T14:37:46;93338.94;;;29.37;46.97
10988;BME280;5547;42.672;23.230;2023-08-17T14:40:47;93318.94;;;28.97;48.30
10988;BME280;5547;42.672;23.230;2023-08-17T14:43:48;93332.22;;;28.60;48.66
10988;BME280;5547;42.672;23.230;2023-08-17T14:46:49;93271.84;;;27.88;51.64
10988;BME280;5547;42.672;23.230;2023-08-17T14:49:49;93333.25;;;28.89;49.09
10988;BME280;5547;42.672;23.230;2023-08-17T14:52:50;93331.97;;;28.90;47.97
10988;BME280;5547;42.672;23.230;2023-08-17T14:55:50;93262.53;;;27.97;50.46
10988;BME280;5547;42.672;23.230;2023-08-17T14:58:51;93330.97;;;28.61;49.56
10988;BME280;5547;42.672;23.230;2023-08-17T15:01:51;93330.75;;;28.91;47.45
10988;BME280;5547;42.672;23.230;2023-08-17T15:04:52;93302.56;;;28.64;49.02
10988;BME280;5547;42.672;23.230;2023-08-17T15:07:53;93339.22;;;29.20;47.05
10988;BME280;5547;42.672;23.230;2023-08-17T15:10:53;93310.56;;;29.08;46.43
10988;BME280;5547;42.672;23.230;2023-08-17T15:13:53;93329.81;;;29.02;48.54
10988;BME280;5547;42.672;23.230;2023-08-17T15:16:54;93302.59;;;28.45;48.31
10988;BME280;5547;42.672;23.230;2023-08-17T15:19:54;93328.59;;;28.71;47.18
10988;BME280;5547;42.672;23.230;2023-08-17T15:22:55;93329.50;;;28.60;48.53
10988;BME280;5547;42.672;23.230;2023-08-17T15:25:55;93313.16;;;28.55;47.93
10988;BME280;5547;42.672;23.230;2023-08-17T15:28:55;93323.84;;;28.72;47.95
10988;BME280;5547;42.672;23.230;2023-08-17T15:31:56;93320.38;;;28.20;48.44
10988;BME280;5547;42.672;23.230;2023-08-17T15:34:56;93321.50;;;28.11;49.76
10988;BME280;5547;42.672;23.230;2023-08-17T15:37:57;93305.56;;;27.72;51.31
10988;BME280;5547;42.672;23.230;2023-08-17T15:40:57;93295.91;;;27.71;51.51
10988;BME280;5547;42.672;23.230;2023-08-17T15:43:58;93302.47;;;27.81;51.92
10988;BME280;5547;42.672;23.230;2023-08-17T15:46:58;93323.25;;;27.71;52.64
10988;BME280;5547;42.672;23.230;2023-08-17T15:50:00;93322.31;;;27.62;52.85
10988;BME280;5547;42.672;23.230;2023-08-17T15:53:01;93315.94;;;27.54;53.23
10988;BME280;5547;42.672;23.230;2023-08-17T15:56:03;93290.34;;;27.38;52.57
10988;BME280;5547;42.672;23.230;2023-08-17T15:59:04;93276.28;;;27.29;53.61